createdAt,value
2023-01-29T00:01:06.597Z,36.53
2023-01-29T00:04:09.342Z,30.83
2023-01-29T00:07:12.311Z,33.97
2023-01-29T00:10:15.555Z,36.35
2023-01-29T00:13:19.082Z,41.53
2023-01-29T00:16:21.885Z,30.27
2023-01-29T00:19:24.669Z,35.20
2023-01-29T00:22:27.541Z,42.85
2023-01-29T00:25:30.812Z,33.33
2023-01-29T00:28:33.831Z,34.70
2023-01-29T00:31:37.108Z,36.53
2023-01-29T00:34:39.926Z,32.33
2023-01-29T00:37:42.737Z,32.50
2023-01-29T00:41:04.511Z,37.92
2023-01-29T00:44:26.646Z,34.30
2023-01-29T00:47:35.538Z,34.13
2023-01-29T00:50:38.455Z,27.65
2023-01-29T00:53:41.968Z,38.88
2023-01-29T00:56:44.711Z,37.17
2023-01-29T00:59:47.659Z,30.63
2023-01-29T01:03:05.713Z,33.85
2023-01-29T01:06:11.018Z,39.92
2023-01-29T01:09:32.533Z,37.95
2023-01-29T01:12:37.272Z,37.83
2023-01-29T01:15:40.818Z,26.60
2023-01-29T01:18:43.556Z,32.75
2023-01-29T01:21:48.432Z,38.58
2023-01-29T01:24:51.200Z,44.70
2023-01-29T01:31:15.728Z,33.73
2023-01-29T01:34:18.568Z,36.60
2023-01-29T01:37:21.583Z,36.95
2023-01-29T01:40:25.903Z,32.58
2023-01-29T01:43:28.733Z,35.35
2023-01-29T01:46:34.175Z,43.17
2023-01-29T01:49:37.167Z,28.23
2023-01-29T01:52:45.317Z,31.33
2023-01-29T01:55:56.002Z,29.30
2023-01-29T01:58:59.542Z,33.63
2023-01-29T02:02:21.097Z,37.93
2023-01-29T02:05:42.701Z,37.95
2023-01-29T02:09:13.772Z,28.67
2023-01-29T02:12:17.346Z,38.15
2023-01-29T02:15:20.111Z,34.20
2023-01-29T02:18:23.160Z,39.50
2023-01-29T02:21:46.135Z,35.50
2023-01-29T02:25:26.984Z,34.17
2023-01-29T02:28:54.568Z,35.88
2023-01-29T02:32:20.572Z,37.30
2023-01-29T02:35:32.299Z,34.93
2023-01-29T02:38:50.408Z,32.13
2023-01-29T02:42:15.463Z,34.60
2023-01-29T02:45:42.349Z,32.28
2023-01-29T02:49:24.545Z,33.58
2023-01-29T02:52:31.712Z,30.17
2023-01-29T02:55:37.445Z,33.50
2023-01-29T02:58:45.696Z,36.72
2023-01-29T03:01:54.852Z,38.40
2023-01-29T03:05:06.463Z,33.33
2023-01-29T03:08:15.870Z,29.83
2023-01-29T03:11:21.262Z,34.38
2023-01-29T03:14:56.585Z,36.65
2023-01-29T03:18:08.853Z,35.08
2023-01-29T03:21:38.521Z,33.80
2023-01-29T03:25:05.771Z,29.87
2023-01-29T03:28:31.179Z,33.15
2023-01-29T03:31:53.192Z,41.15
2023-01-29T03:35:04.126Z,38.90
2023-01-29T03:38:10.513Z,35.22
2023-01-29T03:41:50.163Z,29.83
2023-01-29T03:45:14.238Z,32.38
2023-01-29T03:48:45.838Z,30.77
2023-01-29T03:52:12.614Z,34.53
2023-01-29T03:55:21.696Z,30.88
2023-01-29T03:58:35.931Z,28.70
2023-01-29T04:01:47.733Z,28.17
2023-01-29T04:04:53.699Z,27.95
2023-01-29T04:08:13.114Z,30.42
2023-01-29T04:11:21.128Z,29.77
2023-01-29T04:14:24.032Z,30.43
2023-01-29T04:17:36.110Z,31.33
2023-01-29T04:20:47.467Z,27.98
2023-01-29T04:23:50.276Z,31.15
2023-01-29T04:26:58.132Z,26.10
2023-01-29T04:30:25.637Z,33.73
2023-01-29T04:34:10.402Z,33.55
2023-01-29T04:37:19.637Z,32.97
2023-01-29T04:40:48.720Z,29.23
2023-01-29T04:44:13.135Z,40.03
2023-01-29T04:47:28.034Z,31.73
2023-01-29T04:50:42.549Z,31.85
2023-01-29T04:54:04.993Z,28.50
2023-01-29T04:57:29.641Z,31.60
2023-01-29T05:00:39.346Z,27.83
2023-01-29T05:03:46.975Z,34.23
2023-01-29T05:06:51.075Z,28.73
2023-01-29T05:09:54.110Z,32.47
2023-01-29T05:13:03.471Z,24.85
2023-01-29T05:16:17.788Z,24.95
2023-01-29T05:19:20.581Z,26.73
2023-01-29T05:22:24.405Z,30.17
2023-01-29T05:25:30.131Z,21.83
2023-01-29T05:28:32.853Z,28.90
2023-01-29T05:31:35.688Z,26.20
2023-01-29T05:34:38.672Z,27.93
2023-01-29T05:37:41.491Z,33.75
2023-01-29T05:41:04.213Z,26.10
2023-01-29T05:44:06.956Z,29.65
2023-01-29T05:47:09.857Z,28.90
2023-01-29T05:50:14.893Z,26.53
2023-01-29T05:53:17.827Z,28.92
2023-01-29T05:56:20.552Z,27.55
2023-01-29T05:59:23.343Z,31.17
2023-01-29T06:02:26.034Z,28.92
2023-01-29T06:05:28.784Z,31.37
2023-01-29T06:08:31.668Z,26.40
2023-01-29T06:11:34.497Z,33.53
2023-01-29T06:14:37.223Z,28.83
2023-01-29T06:17:39.996Z,31.80
2023-01-29T06:20:43.183Z,26.30
2023-01-29T06:23:45.948Z,31.77
2023-01-29T06:26:48.790Z,29.50
2023-01-29T06:29:51.557Z,29.30
2023-01-29T06:33:01.756Z,28.70
2023-01-29T06:36:05.522Z,27.57
2023-01-29T06:39:08.602Z,25.90
2023-01-29T06:42:12.900Z,27.63
2023-01-29T06:45:15.833Z,29.02
2023-01-29T06:48:19.131Z,36.67
2023-01-29T06:51:23.106Z,29.70
2023-01-29T06:54:25.963Z,30.58
2023-01-29T06:57:31.615Z,27.35
2023-01-29T07:00:35.092Z,28.17
2023-01-29T07:03:38.360Z,31.83
2023-01-29T07:06:41.194Z,25.03
2023-01-29T07:09:44.092Z,21.02
2023-01-29T07:12:46.957Z,30.05
2023-01-29T07:15:49.659Z,29.95
2023-01-29T07:18:52.464Z,31.15
2023-01-29T07:21:55.515Z,22.03
2023-01-29T07:24:58.592Z,27.33
2023-01-29T07:28:02.073Z,29.30
2023-01-29T07:31:06.278Z,28.10
2023-01-29T07:34:09.034Z,26.95
2023-01-29T07:37:11.821Z,29.07
2023-01-29T07:40:15.331Z,21.15
2023-01-29T07:43:19.441Z,24.65
2023-01-29T07:46:22.123Z,26.30
2023-01-29T07:49:24.872Z,29.20
2023-01-29T07:52:30.198Z,27.77
2023-01-29T07:55:34.050Z,24.40
2023-01-29T07:58:36.948Z,28.50
2023-01-29T08:01:39.663Z,24.60
2023-01-29T08:04:42.349Z,23.70
2023-01-29T08:07:51.451Z,21.60
2023-01-29T08:11:02.838Z,22.02
2023-01-29T08:14:05.579Z,20.67
2023-01-29T08:17:08.290Z,20.63
2023-01-29T08:20:19.636Z,23.65
2023-01-29T08:23:22.605Z,27.90
2023-01-29T08:26:27.421Z,12.70
2023-01-29T08:29:30.246Z,19.67
2023-01-29T08:32:33.021Z,25.55
2023-01-29T08:35:36.248Z,24.35
2023-01-29T08:38:39.057Z,21.60
2023-01-29T08:41:41.756Z,22.65
2023-01-29T08:44:44.460Z,21.60
2023-01-29T08:47:49.016Z,22.92
2023-01-29T08:50:52.017Z,22.50
2023-01-29T08:53:54.790Z,19.63
2023-01-29T08:56:57.557Z,18.58
2023-01-29T09:00:00.584Z,18.67
2023-01-29T09:03:04.009Z,23.75
2023-01-29T09:06:08.843Z,18.30
2023-01-29T09:09:12.058Z,21.17
2023-01-29T09:12:14.805Z,17.55
2023-01-29T09:15:17.977Z,19.58
2023-01-29T09:18:22.100Z,19.70
2023-01-29T09:21:24.854Z,19.35
2023-01-29T09:24:27.788Z,16.63
2023-01-29T09:27:30.968Z,22.77
2023-01-29T09:30:34.833Z,16.90
2023-01-29T09:33:37.979Z,18.73
2023-01-29T09:36:40.759Z,15.93
2023-01-29T09:39:44.332Z,20.63
2023-01-29T09:42:54.533Z,21.42
2023-01-29T09:46:05.679Z,18.80
2023-01-29T09:49:26.327Z,15.25
2023-01-29T09:52:40.669Z,13.30
2023-01-29T09:55:51.651Z,16.67
2023-01-29T09:59:00.479Z,15.13
2023-01-29T10:02:21.877Z,15.48
2023-01-29T10:06:06.388Z,20.48
2023-01-29T10:09:46.275Z,15.80
2023-01-29T10:13:20.434Z,16.83
2023-01-29T10:16:52.317Z,11.30
2023-01-29T10:20:02.781Z,10.32
2023-01-29T10:23:22.459Z,12.80
2023-01-29T10:26:27.670Z,14.50
2023-01-29T10:29:33.080Z,12.27
2023-01-29T10:32:37.401Z,13.45
2023-01-29T10:35:50.189Z,11.40
2023-01-29T10:38:53.235Z,18.05
2023-01-29T10:42:14.413Z,16.73
2023-01-29T10:45:42.989Z,13.23
2023-01-29T10:48:59.430Z,14.18
2023-01-29T10:52:25.009Z,17.45
2023-01-29T10:56:14.115Z,17.83
2023-01-29T10:59:36.079Z,18.70
2023-01-29T11:02:50.397Z,13.20
2023-01-29T11:06:13.053Z,15.05
2023-01-29T11:09:29.559Z,15.65
2023-01-29T11:12:33.793Z,14.68
2023-01-29T11:15:36.800Z,17.25
2023-01-29T11:18:55.420Z,15.37
2023-01-29T11:22:01.274Z,16.60
2023-01-29T11:25:20.176Z,13.13
2023-01-29T11:28:40.682Z,16.33
2023-01-29T11:31:43.955Z,13.73
2023-01-29T11:35:12.679Z,12.53
2023-01-29T11:38:26.841Z,12.27
2023-01-29T11:41:29.717Z,13.38
2023-01-29T11:44:32.951Z,11.40
2023-01-29T11:47:35.932Z,10.88
2023-01-29T11:50:38.648Z,8.93
2023-01-29T11:53:45.730Z,15.65
2023-01-29T11:56:49.225Z,11.68
2023-01-29T11:59:54.337Z,14.52
2023-01-29T12:03:11.852Z,11.90
2023-01-29T12:06:28.375Z,10.03
2023-01-29T12:09:31.519Z,9.68
2023-01-29T12:12:40.287Z,12.00
2023-01-29T12:15:43.390Z,9.57
2023-01-29T12:19:12.188Z,8.93
2023-01-29T12:22:25.091Z,8.87
2023-01-29T12:25:41.555Z,8.75
2023-01-29T12:29:10.473Z,13.55
2023-01-29T12:32:43.543Z,8.85
2023-01-29T12:35:57.655Z,9.95
2023-01-29T12:39:01.033Z,11.67
2023-01-29T12:42:13.407Z,16.20
2023-01-29T12:45:25.250Z,12.23
2023-01-29T12:48:34.975Z,13.20
2023-01-29T12:51:49.082Z,10.57
2023-01-29T12:55:03.297Z,9.83
2023-01-29T12:58:24.343Z,8.23
2023-01-29T13:01:36.977Z,11.40
2023-01-29T13:04:45.729Z,11.68
2023-01-29T13:07:56.272Z,16.27
2023-01-29T13:11:06.436Z,10.00
2023-01-29T13:14:23.018Z,14.75
2023-01-29T13:17:37.939Z,11.43
2023-01-29T13:20:41.373Z,11.27
2023-01-29T13:23:47.533Z,11.63
2023-01-29T13:26:51.458Z,10.17
2023-01-29T13:29:56.046Z,11.02
2023-01-29T13:33:10.382Z,12.50
2023-01-29T13:36:20.307Z,8.95
2023-01-29T13:39:32.873Z,7.80
2023-01-29T13:42:38.519Z,11.83
2023-01-29T13:45:45.366Z,12.13
2023-01-29T13:48:52.362Z,13.57
2023-01-29T13:51:55.728Z,10.48
2023-01-29T13:55:03.270Z,10.07
2023-01-29T13:58:16.131Z,11.20
2023-01-29T14:01:47.879Z,11.63
2023-01-29T14:04:51.018Z,8.48
2023-01-29T14:07:54.081Z,9.63
2023-01-29T14:11:15.433Z,10.30
2023-01-29T14:14:48.975Z,10.27
2023-01-29T14:18:20.789Z,10.30
2023-01-29T14:21:29.873Z,10.65
2023-01-29T14:24:34.044Z,11.13
2023-01-29T14:27:37.559Z,14.10
2023-01-29T14:30:45.811Z,11.47
2023-01-29T14:33:49.160Z,10.27
2023-01-29T14:36:57.874Z,12.57
2023-01-29T14:40:24.145Z,12.57
2023-01-29T14:43:26.876Z,15.73
2023-01-29T14:46:35.869Z,10.67
2023-01-29T14:50:00.778Z,16.83
2023-01-29T14:53:27.411Z,17.63
2023-01-29T14:56:37.276Z,13.70
2023-01-29T15:00:00.609Z,11.88
2023-01-29T15:03:12.405Z,14.43
2023-01-29T15:06:20.289Z,16.67
2023-01-29T15:10:18.937Z,19.77
2023-01-29T15:13:37.597Z,19.42
2023-01-29T15:17:17.418Z,16.10
2023-01-29T15:20:41.158Z,10.43
2023-01-29T15:23:45.439Z,14.38
2023-01-29T15:26:48.440Z,17.83
2023-01-29T15:29:58.787Z,15.75
2023-01-29T15:33:03.766Z,8.63
2023-01-29T15:36:08.290Z,6.77
2023-01-29T15:39:24.338Z,9.88
2023-01-29T15:42:29.079Z,9.95
2023-01-29T15:45:34.161Z,15.32
2023-01-29T15:48:41.160Z,10.93
2023-01-29T15:51:44.122Z,18.37
2023-01-29T15:54:47.940Z,15.18
2023-01-29T15:57:51.194Z,14.68
2023-01-29T16:00:56.818Z,19.90
2023-01-29T16:04:04.506Z,13.85
2023-01-29T16:07:07.431Z,12.70
2023-01-29T16:10:22.536Z,17.33
2023-01-29T16:13:31.928Z,9.90
2023-01-29T16:16:35.116Z,11.52
2023-01-29T16:19:38.521Z,13.45
2023-01-29T16:22:41.715Z,15.73
2023-01-29T16:25:44.880Z,13.18
2023-01-29T16:28:48.279Z,12.00
2023-01-29T16:32:00.536Z,10.20
2023-01-29T16:35:03.990Z,10.43
2023-01-29T16:38:22.091Z,12.23
2023-01-29T16:41:25.190Z,12.60
2023-01-29T16:44:28.256Z,11.77
2023-01-29T16:47:34.734Z,12.60
2023-01-29T16:50:53.906Z,11.32
2023-01-29T16:53:59.287Z,11.37
2023-01-29T16:57:03.477Z,6.85
2023-01-29T17:00:08.782Z,6.78
2023-01-29T17:03:14.699Z,12.23
2023-01-29T17:06:23.632Z,10.45
2023-01-29T17:09:37.776Z,9.80
2023-01-29T17:12:41.004Z,10.15
2023-01-29T17:15:43.907Z,12.80
2023-01-29T17:18:47.002Z,11.80
2023-01-29T17:21:50.130Z,9.05
2023-01-29T17:24:53.055Z,11.97
2023-01-29T17:27:56.041Z,14.48
2023-01-29T17:31:06.284Z,12.82
2023-01-29T17:34:14.228Z,31.15
2023-01-29T17:37:17.491Z,30.67
2023-01-29T17:40:34.577Z,20.40
2023-01-29T17:43:37.529Z,15.75
2023-01-29T17:46:41.578Z,14.98
2023-01-29T17:49:44.562Z,9.18
2023-01-29T17:52:47.529Z,11.13
2023-01-29T17:55:50.827Z,9.87
2023-01-29T17:58:54.229Z,7.20
2023-01-29T18:01:57.383Z,8.45
2023-01-29T18:05:00.612Z,10.95
2023-01-29T18:08:04.812Z,9.93
2023-01-29T18:11:12.710Z,12.43
2023-01-29T18:14:15.973Z,13.25
2023-01-29T18:17:22.487Z,11.77
2023-01-29T18:20:25.874Z,18.15
2023-01-29T18:23:31.316Z,15.43
2023-01-29T18:26:36.059Z,25.03
2023-01-29T18:29:39.218Z,17.30
2023-01-29T18:32:42.696Z,15.98
2023-01-29T18:35:48.169Z,17.27
2023-01-29T18:38:50.995Z,16.08
2023-01-29T18:41:53.986Z,14.40
2023-01-29T18:44:56.938Z,19.08
2023-01-29T18:48:00.251Z,16.85
2023-01-29T18:51:03.559Z,11.90
2023-01-29T18:54:06.579Z,17.42
2023-01-29T18:57:14.316Z,15.60
2023-01-29T19:00:20.056Z,17.65
2023-01-29T19:03:23.163Z,16.80
2023-01-29T19:06:26.021Z,18.25
2023-01-29T19:09:29.058Z,21.10
2023-01-29T19:12:33.923Z,17.63
2023-01-29T19:15:37.119Z,15.95
2023-01-29T19:18:40.283Z,17.38
2023-01-29T19:21:43.504Z,16.73
2023-01-29T19:24:46.567Z,10.77
2023-01-29T19:27:49.728Z,17.33
2023-01-29T19:30:52.793Z,14.40
2023-01-29T19:33:55.812Z,15.75
2023-01-29T19:36:58.542Z,16.38
2023-01-29T19:40:01.693Z,14.13
2023-01-29T19:43:05.206Z,11.80
2023-01-29T19:46:08.087Z,15.90
2023-01-29T19:49:11.076Z,16.13
2023-01-29T19:52:51.099Z,14.75
2023-01-29T19:56:16.003Z,12.80
2023-01-29T19:59:19.781Z,14.77
2023-01-29T20:02:22.809Z,17.08
2023-01-29T20:05:27.241Z,17.00
2023-01-29T20:08:31.201Z,16.60
2023-01-29T20:11:34.302Z,12.60
2023-01-29T20:14:37.292Z,14.23
2023-01-29T20:17:40.738Z,15.05
2023-01-29T20:20:48.325Z,21.02
2023-01-29T20:23:51.967Z,17.15
2023-01-29T20:26:55.472Z,17.33
2023-01-29T20:29:59.842Z,19.13
2023-01-29T20:33:03.886Z,16.15
2023-01-29T20:36:10.176Z,18.08
2023-01-29T20:39:13.198Z,13.32
2023-01-29T20:42:16.539Z,20.40
2023-01-29T20:45:19.885Z,18.20
2023-01-29T20:48:23.563Z,17.77
2023-01-29T20:51:26.804Z,26.15
2023-01-29T20:54:30.176Z,16.58
2023-01-29T20:57:37.403Z,14.68
2023-01-29T21:00:40.432Z,17.57
2023-01-29T21:03:43.747Z,13.80
2023-01-29T21:06:46.674Z,15.40
2023-01-29T21:09:49.969Z,13.32
2023-01-29T21:12:54.716Z,16.00
2023-01-29T21:15:57.819Z,12.87
2023-01-29T21:19:01.413Z,14.18
2023-01-29T21:22:04.800Z,12.75
2023-01-29T21:25:08.281Z,13.23
2023-01-29T21:28:11.768Z,11.90
2023-01-29T21:31:16.390Z,11.23
2023-01-29T21:34:19.486Z,14.38
2023-01-29T21:37:22.261Z,13.55
2023-01-29T21:40:25.497Z,12.88
2023-01-29T21:43:28.625Z,19.67
2023-01-29T21:46:31.598Z,16.03
2023-01-29T21:49:34.675Z,16.70
2023-01-29T21:52:37.983Z,16.77
2023-01-29T21:55:40.847Z,19.38
2023-01-29T21:58:43.737Z,17.15
2023-01-29T22:01:46.547Z,15.90
2023-01-29T22:04:50.468Z,13.85
2023-01-29T22:07:53.177Z,16.48
2023-01-29T22:10:56.013Z,17.15
2023-01-29T22:13:58.864Z,14.43
2023-01-29T22:17:01.764Z,15.83
2023-01-29T22:20:08.663Z,16.25
2023-01-29T22:23:12.701Z,14.90
2023-01-29T22:26:16.138Z,16.42
2023-01-29T22:29:19.722Z,13.85
2023-01-29T22:32:22.467Z,13.87
2023-01-29T22:35:25.214Z,14.60
2023-01-29T22:38:28.351Z,16.10
2023-01-29T22:41:31.154Z,13.98
2023-01-29T22:44:34.247Z,15.35
2023-01-29T22:47:37.565Z,15.90
2023-01-29T22:50:41.072Z,16.35
2023-01-29T22:53:50.725Z,16.48
2023-01-29T22:56:53.415Z,17.30
2023-01-29T22:59:56.209Z,16.33
2023-01-29T23:02:59.189Z,18.60
2023-01-29T23:06:03.159Z,16.70
2023-01-29T23:09:05.949Z,17.67
2023-01-29T23:12:08.672Z,13.93
2023-01-29T23:15:11.577Z,19.98
2023-01-29T23:18:14.364Z,13.87
2023-01-29T23:21:17.824Z,19.90
2023-01-29T23:24:20.653Z,15.23
2023-01-29T23:27:23.451Z,15.50
2023-01-29T23:30:26.187Z,14.52
2023-01-29T23:33:29.027Z,15.83
2023-01-29T23:36:31.774Z,15.25
2023-01-29T23:39:34.586Z,15.30
2023-01-29T23:42:37.284Z,14.48
2023-01-29T23:45:41.671Z,20.23
2023-01-29T23:48:44.592Z,17.57
2023-01-29T23:51:49.188Z,15.98
2023-01-29T23:54:51.917Z,14.07
2023-01-29T23:57:54.706Z,15.23
